Point Arena, CA (95468)

8:20 AM PST on December 07, 2016 (GMT -0800)
NOS_NWLON | | Change Station

Elev 0 ft 38.91 °N, 123.71 °W | Updated 32 minutes ago

Partly Cloudy
Partly Cloudy
47.0 °F
Feels Like 44 °F
N
6.0
Wind Variable Wind from East
Gusts 0.0 mph

Today
High -- | Low -- °F
--% Chance of Precip.
Yesterday
High -- | Low -- °F
Precip. -- in
Pressure 30.18 in
Visibility 10.0 miles
Clouds Few 12000 ft
Windchill 44 °F
Dew Point Not available.
Humidity Not available.
Rainfall in
Snow Depth Not available.
7:20 AM 4:52 PM
First Quarter, 53% visible
METAR KUKI 071556Z AUTO 00000KT 10SM FEW120 01/M01 A3017 RMK AO2 SLP218 T00061006
Pressure 30.18 in
Visibility 10.0 miles
Clouds Few 12000 ft
Windchill 44 °F
Dew Point Not available.
Humidity Not available.
Rainfall in
Snow Depth Not available.
7:20 AM 4:52 PM
First Quarter, 53% visible
METAR KUKI 071556Z AUTO 00000KT 10SM FEW120 01/M01 A3017 RMK AO2 SLP218 T00061006

10-Day Weather Forecast

Almanac

Astronomy

Dec. 07, 2016 Rise Set
Actual Time
Civil Twilight
Nautical Twilight
Astronomical Twilight
Moon
Length of Visible Light
Length of Day
Tomorrow will be .
, % of the Moon is Illuminated

Today's Extremes

State Highs State Lows

Community

WunderPhotos

Upload Photos

1,956,132 photos uploaded!

WunderBlog® & News

Nearby

Air Quality

  Air Quality AQ Index Pollutant
Not available.

Snow Depth

Station Depth Elevation

Earthquake Activity

City Distance Mag. Time & Date
Minimum magnitude displayed is 2.5.

Coastal Water Temperatures

Place Temperature

Stations

Nearby Weather Stations

Station Location Temp. Windchill Dew Point Humidity Wind Precip. Elev Updated Type
                   

Watches & Warnings

There are currently no watches in effect.